sensor_id;sensor_type;location;lat;lon;timestamp;P1;durP1;ratioP1;P2;durP2;ratioP2
44720;SDS011;30450;52.534;13.398;2022-12-18T00:00:39;55.88;;;22.10;;
44720;SDS011;30450;52.534;13.398;2022-12-18T00:03:06;53.65;;;21.20;;
44720;SDS011;30450;52.534;13.398;2022-12-18T00:05:31;53.30;;;21.30;;
44720;SDS011;30450;52.534;13.398;2022-12-18T00:07:57;58.83;;;25.83;;
44720;SDS011;30450;52.534;13.398;2022-12-18T00:10:23;62.47;;;24.48;;
44720;SDS011;30450;52.534;13.398;2022-12-18T00:12:49;58.35;;;25.83;;
44720;SDS011;30450;52.534;13.398;2022-12-18T00:15:15;63.30;;;25.70;;
44720;SDS011;30450;52.534;13.398;2022-12-18T00:17:40;65.18;;;26.00;;
44720;SDS011;30450;52.534;13.398;2022-12-18T00:20:06;78.35;;;28.30;;
44720;SDS011;30450;52.534;13.398;2022-12-18T00:22:32;58.63;;;22.08;;
44720;SDS011;30450;52.534;13.398;2022-12-18T00:24:58;68.57;;;26.27;;
44720;SDS011;30450;52.534;13.398;2022-12-18T00:27:24;62.28;;;24.23;;
44720;SDS011;30450;52.534;13.398;2022-12-18T00:29:50;57.60;;;23.90;;
44720;SDS011;30450;52.534;13.398;2022-12-18T00:32:16;66.68;;;26.45;;
44720;SDS011;30450;52.534;13.398;2022-12-18T00:34:41;54.35;;;24.33;;
44720;SDS011;30450;52.534;13.398;2022-12-18T00:37:07;57.38;;;24.10;;
44720;SDS011;30450;52.534;13.398;2022-12-18T00:39:33;52.60;;;22.70;;
44720;SDS011;30450;52.534;13.398;2022-12-18T00:41:59;60.00;;;23.77;;
44720;SDS011;30450;52.534;13.398;2022-12-18T00:44:44;61.00;;;23.77;;
44720;SDS011;30450;52.534;13.398;2022-12-18T00:47:10;55.95;;;24.92;;
44720;SDS011;30450;52.534;13.398;2022-12-18T00:49:35;53.60;;;22.42;;
44720;SDS011;30450;52.534;13.398;2022-12-18T00:52:01;58.97;;;24.60;;
44720;SDS011;30450;52.534;13.398;2022-12-18T00:54:27;50.58;;;21.92;;
44720;SDS011;30450;52.534;13.398;2022-12-18T00:56:53;56.78;;;22.73;;
44720;SDS011;30450;52.534;13.398;2022-12-18T00:59:20;59.58;;;24.17;;
44720;SDS011;30450;52.534;13.398;2022-12-18T01:01:46;51.28;;;23.60;;
44720;SDS011;30450;52.534;13.398;2022-12-18T01:04:12;56.90;;;22.63;;
44720;SDS011;30450;52.534;13.398;2022-12-18T01:06:38;49.80;;;22.25;;
44720;SDS011;30450;52.534;13.398;2022-12-18T01:09:04;50.25;;;22.40;;
44720;SDS011;30450;52.534;13.398;2022-12-18T01:11:30;53.22;;;21.30;;
44720;SDS011;30450;52.534;13.398;2022-12-18T01:13:55;42.20;;;18.50;;
44720;SDS011;30450;52.534;13.398;2022-12-18T01:16:25;47.80;;;20.52;;
44720;SDS011;30450;52.534;13.398;2022-12-18T01:18:52;51.13;;;22.35;;
44720;SDS011;30450;52.534;13.398;2022-12-18T01:21:18;52.97;;;22.23;;
44720;SDS011;30450;52.534;13.398;2022-12-18T01:23:43;57.78;;;23.67;;
44720;SDS011;30450;52.534;13.398;2022-12-18T01:26:10;55.17;;;21.42;;
44720;SDS011;30450;52.534;13.398;2022-12-18T01:28:36;47.15;;;21.92;;
44720;SDS011;30450;52.534;13.398;2022-12-18T01:31:12;50.55;;;20.60;;
44720;SDS011;30450;52.534;13.398;2022-12-18T01:33:38;52.35;;;23.33;;
44720;SDS011;30450;52.534;13.398;2022-12-18T01:36:04;54.35;;;23.08;;
44720;SDS011;30450;52.534;13.398;2022-12-18T01:38:30;50.83;;;22.23;;
44720;SDS011;30450;52.534;13.398;2022-12-18T01:41:00;53.05;;;21.25;;
44720;SDS011;30450;52.534;13.398;2022-12-18T01:43:45;55.78;;;23.65;;
44720;SDS011;30450;52.534;13.398;2022-12-18T01:46:11;53.28;;;21.98;;
44720;SDS011;30450;52.534;13.398;2022-12-18T01:48:37;51.20;;;23.00;;
44720;SDS011;30450;52.534;13.398;2022-12-18T01:51:04;44.25;;;21.50;;
44720;SDS011;30450;52.534;13.398;2022-12-18T01:53:30;48.47;;;21.85;;
44720;SDS011;30450;52.534;13.398;2022-12-18T01:55:56;49.25;;;21.25;;
44720;SDS011;30450;52.534;13.398;2022-12-18T01:58:24;52.33;;;24.05;;
44720;SDS011;30450;52.534;13.398;2022-12-18T02:00:54;57.67;;;25.27;;
44720;SDS011;30450;52.534;13.398;2022-12-18T02:03:19;63.45;;;26.13;;
44720;SDS011;30450;52.534;13.398;2022-12-18T02:05:47;53.63;;;23.88;;
44720;SDS011;30450;52.534;13.398;2022-12-18T02:15:49;57.42;;;22.13;;
44720;SDS011;30450;52.534;13.398;2022-12-18T02:18:27;69.75;;;27.17;;
44720;SDS011;30450;52.534;13.398;2022-12-18T02:20:55;66.45;;;26.20;;
44720;SDS011;30450;52.534;13.398;2022-12-18T02:28:39;61.95;;;26.55;;
44720;SDS011;30450;52.534;13.398;2022-12-18T02:31:07;67.85;;;26.70;;
44720;SDS011;30450;52.534;13.398;2022-12-18T02:33:35;63.97;;;24.05;;
44720;SDS011;30450;52.534;13.398;2022-12-18T02:36:02;69.68;;;26.63;;
44720;SDS011;30450;52.534;13.398;2022-12-18T02:38:28;64.53;;;24.95;;
44720;SDS011;30450;52.534;13.398;2022-12-18T02:40:55;66.75;;;25.88;;
44720;SDS011;30450;52.534;13.398;2022-12-18T02:43:22;79.30;;;29.20;;
44720;SDS011;30450;52.534;13.398;2022-12-18T02:45:49;67.15;;;26.83;;
44720;SDS011;30450;52.534;13.398;2022-12-18T02:48:16;70.68;;;27.98;;
44720;SDS011;30450;52.534;13.398;2022-12-18T02:51:45;84.05;;;28.27;;
44720;SDS011;30450;52.534;13.398;2022-12-18T02:53:41;82.00;;;28.75;;
44720;SDS011;30450;52.534;13.398;2022-12-18T02:56:11;74.57;;;28.08;;
44720;SDS011;30450;52.534;13.398;2022-12-18T02:58:47;81.07;;;29.83;;
44720;SDS011;30450;52.534;13.398;2022-12-18T03:01:24;83.75;;;31.65;;
44720;SDS011;30450;52.534;13.398;2022-12-18T03:03:56;75.03;;;29.05;;
44720;SDS011;30450;52.534;13.398;2022-12-18T03:08:53;77.65;;;29.00;;
44720;SDS011;30450;52.534;13.398;2022-12-18T03:11:21;82.20;;;30.17;;
44720;SDS011;30450;52.534;13.398;2022-12-18T03:14:09;86.53;;;31.30;;
44720;SDS011;30450;52.534;13.398;2022-12-18T03:16:37;96.70;;;30.88;;
44720;SDS011;30450;52.534;13.398;2022-12-18T03:21:34;87.25;;;29.50;;
44720;SDS011;30450;52.534;13.398;2022-12-18T03:24:03;86.60;;;33.20;;
44720;SDS011;30450;52.534;13.398;2022-12-18T03:26:31;90.15;;;33.88;;
44720;SDS011;30450;52.534;13.398;2022-12-18T03:29:01;100.32;;;34.50;;
44720;SDS011;30450;52.534;13.398;2022-12-18T03:31:28;91.82;;;33.80;;
44720;SDS011;30450;52.534;13.398;2022-12-18T03:33:56;90.63;;;32.30;;
44720;SDS011;30450;52.534;13.398;2022-12-18T03:36:22;85.38;;;33.72;;
44720;SDS011;30450;52.534;13.398;2022-12-18T03:38:49;90.00;;;32.22;;
44720;SDS011;30450;52.534;13.398;2022-12-18T03:41:17;100.47;;;33.72;;
44720;SDS011;30450;52.534;13.398;2022-12-18T03:43:49;86.35;;;34.75;;
44720;SDS011;30450;52.534;13.398;2022-12-18T03:46:20;82.25;;;34.15;;
44720;SDS011;30450;52.534;13.398;2022-12-18T03:48:49;93.60;;;34.47;;
44720;SDS011;30450;52.534;13.398;2022-12-18T03:51:18;89.53;;;35.33;;
44720;SDS011;30450;52.534;13.398;2022-12-18T03:53:58;88.95;;;34.00;;
44720;SDS011;30450;52.534;13.398;2022-12-18T03:56:25;86.15;;;33.95;;
44720;SDS011;30450;52.534;13.398;2022-12-18T03:58:52;82.75;;;32.03;;
44720;SDS011;30450;52.534;13.398;2022-12-18T04:01:20;77.28;;;29.90;;
44720;SDS011;30450;52.534;13.398;2022-12-18T04:03:47;78.57;;;30.25;;
44720;SDS011;30450;52.534;13.398;2022-12-18T04:06:14;76.47;;;31.88;;
44720;SDS011;30450;52.534;13.398;2022-12-18T04:08:40;82.38;;;30.77;;
44720;SDS011;30450;52.534;13.398;2022-12-18T04:11:06;84.93;;;30.98;;
44720;SDS011;30450;52.534;13.398;2022-12-18T04:13:34;78.60;;;32.13;;
44720;SDS011;30450;52.534;13.398;2022-12-18T04:16:00;72.32;;;29.48;;
44720;SDS011;30450;52.534;13.398;2022-12-18T04:18:27;70.20;;;28.40;;
44720;SDS011;30450;52.534;13.398;2022-12-18T04:20:52;63.75;;;26.27;;
44720;SDS011;30450;52.534;13.398;2022-12-18T04:23:18;70.97;;;27.35;;
44720;SDS011;30450;52.534;13.398;2022-12-18T04:25:45;66.63;;;27.95;;
44720;SDS011;30450;52.534;13.398;2022-12-18T04:28:10;65.55;;;26.95;;
44720;SDS011;30450;52.534;13.398;2022-12-18T04:30:36;66.72;;;26.98;;
44720;SDS011;30450;52.534;13.398;2022-12-18T04:33:02;62.95;;;25.10;;
44720;SDS011;30450;52.534;13.398;2022-12-18T04:35:28;64.43;;;26.27;;
44720;SDS011;30450;52.534;13.398;2022-12-18T04:37:54;65.78;;;26.27;;
44720;SDS011;30450;52.534;13.398;2022-12-18T04:40:20;70.70;;;25.85;;
44720;SDS011;30450;52.534;13.398;2022-12-18T04:42:47;62.70;;;26.02;;
44720;SDS011;30450;52.534;13.398;2022-12-18T04:45:12;62.55;;;26.42;;
44720;SDS011;30450;52.534;13.398;2022-12-18T04:47:38;68.82;;;24.50;;
44720;SDS011;30450;52.534;13.398;2022-12-18T04:50:04;64.10;;;25.10;;
44720;SDS011;30450;52.534;13.398;2022-12-18T04:52:30;62.22;;;24.45;;
44720;SDS011;30450;52.534;13.398;2022-12-18T04:54:56;66.22;;;23.85;;
44720;SDS011;30450;52.534;13.398;2022-12-18T04:57:22;73.78;;;25.50;;
44720;SDS011;30450;52.534;13.398;2022-12-18T04:59:48;65.53;;;26.10;;
44720;SDS011;30450;52.534;13.398;2022-12-18T05:02:13;66.80;;;24.80;;
44720;SDS011;30450;52.534;13.398;2022-12-18T05:04:39;65.35;;;24.02;;
44720;SDS011;30450;52.534;13.398;2022-12-18T05:07:05;66.70;;;24.33;;
44720;SDS011;30450;52.534;13.398;2022-12-18T05:09:31;62.17;;;23.42;;
44720;SDS011;30450;52.534;13.398;2022-12-18T05:11:57;62.28;;;23.70;;
44720;SDS011;30450;52.534;13.398;2022-12-18T05:14:22;56.72;;;23.20;;
44720;SDS011;30450;52.534;13.398;2022-12-18T05:16:48;59.25;;;24.23;;
44720;SDS011;30450;52.534;13.398;2022-12-18T05:19:14;59.13;;;23.92;;
44720;SDS011;30450;52.534;13.398;2022-12-18T05:21:40;58.28;;;23.48;;
44720;SDS011;30450;52.534;13.398;2022-12-18T05:24:06;57.60;;;23.15;;
44720;SDS011;30450;52.534;13.398;2022-12-18T05:26:32;61.10;;;25.30;;
44720;SDS011;30450;52.534;13.398;2022-12-18T05:28:57;61.20;;;24.83;;
44720;SDS011;30450;52.534;13.398;2022-12-18T05:31:23;61.95;;;24.05;;
44720;SDS011;30450;52.534;13.398;2022-12-18T05:33:49;55.75;;;22.98;;
44720;SDS011;30450;52.534;13.398;2022-12-18T05:36:14;61.38;;;23.83;;
44720;SDS011;30450;52.534;13.398;2022-12-18T05:38:40;57.35;;;22.55;;
44720;SDS011;30450;52.534;13.398;2022-12-18T05:41:06;63.00;;;21.30;;
44720;SDS011;30450;52.534;13.398;2022-12-18T05:43:33;51.55;;;20.50;;
44720;SDS011;30450;52.534;13.398;2022-12-18T05:46:02;58.47;;;23.27;;
44720;SDS011;30450;52.534;13.398;2022-12-18T05:48:28;66.20;;;23.52;;
44720;SDS011;30450;52.534;13.398;2022-12-18T05:50:54;61.35;;;22.60;;
44720;SDS011;30450;52.534;13.398;2022-12-18T05:53:20;73.15;;;24.75;;
44720;SDS011;30450;52.534;13.398;2022-12-18T05:55:46;59.63;;;22.92;;
44720;SDS011;30450;52.534;13.398;2022-12-18T05:58:12;62.13;;;21.52;;
44720;SDS011;30450;52.534;13.398;2022-12-18T06:00:40;68.25;;;23.15;;
44720;SDS011;30450;52.534;13.398;2022-12-18T06:03:06;60.08;;;23.63;;
44720;SDS011;30450;52.534;13.398;2022-12-18T06:05:35;68.88;;;23.80;;
44720;SDS011;30450;52.534;13.398;2022-12-18T06:08:02;62.05;;;24.00;;
44720;SDS011;30450;52.534;13.398;2022-12-18T06:10:28;63.63;;;24.25;;
44720;SDS011;30450;52.534;13.398;2022-12-18T06:12:54;66.00;;;23.35;;
44720;SDS011;30450;52.534;13.398;2022-12-18T06:15:22;73.80;;;24.50;;
44720;SDS011;30450;52.534;13.398;2022-12-18T06:17:47;74.47;;;26.75;;
44720;SDS011;30450;52.534;13.398;2022-12-18T06:20:13;68.75;;;26.17;;
44720;SDS011;30450;52.534;13.398;2022-12-18T06:22:39;67.97;;;26.67;;
44720;SDS011;30450;52.534;13.398;2022-12-18T06:25:05;67.75;;;25.58;;
44720;SDS011;30450;52.534;13.398;2022-12-18T06:27:31;69.43;;;25.83;;
44720;SDS011;30450;52.534;13.398;2022-12-18T06:30:00;77.10;;;25.75;;
44720;SDS011;30450;52.534;13.398;2022-12-18T06:32:26;69.85;;;26.98;;
44720;SDS011;30450;52.534;13.398;2022-12-18T06:34:52;68.80;;;26.15;;
44720;SDS011;30450;52.534;13.398;2022-12-18T06:37:19;71.35;;;26.95;;
44720;SDS011;30450;52.534;13.398;2022-12-18T06:39:45;76.22;;;27.80;;
44720;SDS011;30450;52.534;13.398;2022-12-18T06:42:11;76.50;;;27.35;;
44720;SDS011;30450;52.534;13.398;2022-12-18T06:44:37;71.22;;;27.30;;
44720;SDS011;30450;52.534;13.398;2022-12-18T06:47:03;71.55;;;26.52;;
44720;SDS011;30450;52.534;13.398;2022-12-18T06:49:29;69.25;;;26.98;;
44720;SDS011;30450;52.534;13.398;2022-12-18T06:51:55;61.35;;;26.30;;
44720;SDS011;30450;52.534;13.398;2022-12-18T06:54:20;64.90;;;24.55;;
44720;SDS011;30450;52.534;13.398;2022-12-18T06:57:06;71.65;;;27.52;;
44720;SDS011;30450;52.534;13.398;2022-12-18T06:59:34;70.97;;;25.55;;
44720;SDS011;30450;52.534;13.398;2022-12-18T07:02:00;75.03;;;28.33;;
44720;SDS011;30450;52.534;13.398;2022-12-18T07:04:29;61.90;;;25.63;;
44720;SDS011;30450;52.534;13.398;2022-12-18T07:06:55;57.90;;;25.23;;
44720;SDS011;30450;52.534;13.398;2022-12-18T07:09:23;63.08;;;24.38;;
44720;SDS011;30450;52.534;13.398;2022-12-18T07:11:49;66.40;;;28.27;;
44720;SDS011;30450;52.534;13.398;2022-12-18T07:14:16;63.55;;;25.15;;
44720;SDS011;30450;52.534;13.398;2022-12-18T07:16:41;58.47;;;24.08;;
44720;SDS011;30450;52.534;13.398;2022-12-18T07:19:07;65.82;;;26.15;;
44720;SDS011;30450;52.534;13.398;2022-12-18T07:21:33;61.67;;;27.00;;
44720;SDS011;30450;52.534;13.398;2022-12-18T07:23:59;63.17;;;26.38;;
44720;SDS011;30450;52.534;13.398;2022-12-18T07:26:25;71.28;;;27.77;;
44720;SDS011;30450;52.534;13.398;2022-12-18T07:28:54;69.45;;;27.25;;
44720;SDS011;30450;52.534;13.398;2022-12-18T07:31:21;65.22;;;27.42;;
44720;SDS011;30450;52.534;13.398;2022-12-18T07:33:47;66.60;;;26.77;;
44720;SDS011;30450;52.534;13.398;2022-12-18T07:36:13;69.75;;;27.25;;
44720;SDS011;30450;52.534;13.398;2022-12-18T07:38:39;79.75;;;26.08;;
44720;SDS011;30450;52.534;13.398;2022-12-18T07:41:09;69.72;;;27.27;;
44720;SDS011;30450;52.534;13.398;2022-12-18T07:43:36;67.82;;;25.55;;
44720;SDS011;30450;52.534;13.398;2022-12-18T07:46:02;64.72;;;26.08;;
44720;SDS011;30450;52.534;13.398;2022-12-18T07:48:28;81.30;;;27.98;;
44720;SDS011;30450;52.534;13.398;2022-12-18T07:50:58;91.93;;;27.45;;
44720;SDS011;30450;52.534;13.398;2022-12-18T07:53:24;61.78;;;25.15;;
44720;SDS011;30450;52.534;13.398;2022-12-18T07:55:54;65.35;;;27.58;;
44720;SDS011;30450;52.534;13.398;2022-12-18T07:58:20;74.47;;;27.10;;
44720;SDS011;30450;52.534;13.398;2022-12-18T08:00:46;65.45;;;25.55;;
44720;SDS011;30450;52.534;13.398;2022-12-18T08:03:14;68.20;;;25.15;;
44720;SDS011;30450;52.534;13.398;2022-12-18T08:05:40;70.35;;;24.33;;
44720;SDS011;30450;52.534;13.398;2022-12-18T08:08:06;69.35;;;24.92;;
44720;SDS011;30450;52.534;13.398;2022-12-18T08:10:31;65.88;;;26.50;;
44720;SDS011;30450;52.534;13.398;2022-12-18T08:12:57;72.80;;;28.60;;
44720;SDS011;30450;52.534;13.398;2022-12-18T08:15:24;69.70;;;26.23;;
44720;SDS011;30450;52.534;13.398;2022-12-18T08:17:49;69.20;;;27.17;;
44720;SDS011;30450;52.534;13.398;2022-12-18T08:20:15;68.10;;;25.48;;
44720;SDS011;30450;52.534;13.398;2022-12-18T08:22:41;69.97;;;27.88;;
44720;SDS011;30450;52.534;13.398;2022-12-18T08:25:08;61.38;;;26.30;;
44720;SDS011;30450;52.534;13.398;2022-12-18T08:27:34;71.50;;;26.88;;
44720;SDS011;30450;52.534;13.398;2022-12-18T08:30:00;68.45;;;26.52;;
44720;SDS011;30450;52.534;13.398;2022-12-18T08:32:27;61.83;;;26.42;;
44720;SDS011;30450;52.534;13.398;2022-12-18T08:34:53;63.87;;;25.20;;
44720;SDS011;30450;52.534;13.398;2022-12-18T08:37:19;56.05;;;23.67;;
44720;SDS011;30450;52.534;13.398;2022-12-18T08:39:45;59.03;;;24.70;;
44720;SDS011;30450;52.534;13.398;2022-12-18T08:42:11;55.67;;;23.75;;
44720;SDS011;30450;52.534;13.398;2022-12-18T08:44:55;56.25;;;24.45;;
44720;SDS011;30450;52.534;13.398;2022-12-18T08:47:21;62.25;;;25.60;;
44720;SDS011;30450;52.534;13.398;2022-12-18T08:49:47;51.97;;;23.10;;
44720;SDS011;30450;52.534;13.398;2022-12-18T08:52:14;54.28;;;23.08;;
44720;SDS011;30450;52.534;13.398;2022-12-18T08:54:39;49.45;;;22.48;;
44720;SDS011;30450;52.534;13.398;2022-12-18T08:57:05;54.05;;;22.65;;
44720;SDS011;30450;52.534;13.398;2022-12-18T08:59:31;51.50;;;22.92;;
44720;SDS011;30450;52.534;13.398;2022-12-18T09:02:00;60.65;;;27.05;;
44720;SDS011;30450;52.534;13.398;2022-12-18T09:04:25;58.25;;;24.75;;
44720;SDS011;30450;52.534;13.398;2022-12-18T09:06:53;56.67;;;22.85;;
44720;SDS011;30450;52.534;13.398;2022-12-18T09:09:19;51.72;;;23.23;;
44720;SDS011;30450;52.534;13.398;2022-12-18T09:11:45;55.05;;;21.23;;
44720;SDS011;30450;52.534;13.398;2022-12-18T09:14:10;52.40;;;22.17;;
44720;SDS011;30450;52.534;13.398;2022-12-18T09:16:36;55.15;;;22.40;;
44720;SDS011;30450;52.534;13.398;2022-12-18T09:19:03;62.42;;;24.15;;
44720;SDS011;30450;52.534;13.398;2022-12-18T09:21:33;53.58;;;20.80;;
44720;SDS011;30450;52.534;13.398;2022-12-18T09:24:00;48.80;;;22.77;;
44720;SDS011;30450;52.534;13.398;2022-12-18T09:26:26;46.28;;;20.77;;
44720;SDS011;30450;52.534;13.398;2022-12-18T09:28:52;47.75;;;22.85;;
44720;SDS011;30450;52.534;13.398;2022-12-18T09:31:18;52.53;;;23.38;;
44720;SDS011;30450;52.534;13.398;2022-12-18T09:33:45;46.30;;;23.40;;
44720;SDS011;30450;52.534;13.398;2022-12-18T09:36:11;47.92;;;21.92;;
44720;SDS011;30450;52.534;13.398;2022-12-18T09:38:37;45.72;;;21.42;;
44720;SDS011;30450;52.534;13.398;2022-12-18T09:43:43;46.25;;;20.58;;
44720;SDS011;30450;52.534;13.398;2022-12-18T09:46:17;50.05;;;22.58;;
44720;SDS011;30450;52.534;13.398;2022-12-18T09:48:46;51.63;;;22.40;;
44720;SDS011;30450;52.534;13.398;2022-12-18T09:51:47;47.47;;;22.75;;
44720;SDS011;30450;52.534;13.398;2022-12-18T09:54:06;54.38;;;22.58;;
44720;SDS011;30450;52.534;13.398;2022-12-18T09:56:38;50.67;;;23.48;;
44720;SDS011;30450;52.534;13.398;2022-12-18T09:59:04;58.28;;;25.20;;
44720;SDS011;30450;52.534;13.398;2022-12-18T10:01:31;47.88;;;21.55;;
44720;SDS011;30450;52.534;13.398;2022-12-18T10:03:57;53.83;;;24.08;;
44720;SDS011;30450;52.534;13.398;2022-12-18T10:06:43;47.97;;;21.48;;
44720;SDS011;30450;52.534;13.398;2022-12-18T10:09:23;47.95;;;21.48;;
44720;SDS011;30450;52.534;13.398;2022-12-18T10:19:42;62.15;;;24.38;;
44720;SDS011;30450;52.534;13.398;2022-12-18T10:24:52;53.78;;;22.10;;
44720;SDS011;30450;52.534;13.398;2022-12-18T10:27:24;62.10;;;26.60;;
44720;SDS011;30450;52.534;13.398;2022-12-18T10:29:51;60.30;;;24.13;;
44720;SDS011;30450;52.534;13.398;2022-12-18T10:32:18;58.53;;;24.58;;
44720;SDS011;30450;52.534;13.398;2022-12-18T10:34:45;66.72;;;26.98;;
44720;SDS011;30450;52.534;13.398;2022-12-18T10:37:14;63.37;;;24.87;;
44720;SDS011;30450;52.534;13.398;2022-12-18T10:39:41;62.80;;;24.90;;
44720;SDS011;30450;52.534;13.398;2022-12-18T10:42:14;60.17;;;25.25;;
44720;SDS011;30450;52.534;13.398;2022-12-18T10:44:41;63.90;;;25.83;;
44720;SDS011;30450;52.534;13.398;2022-12-18T10:47:11;58.70;;;25.30;;
44720;SDS011;30450;52.534;13.398;2022-12-18T10:49:38;59.67;;;24.98;;
44720;SDS011;30450;52.534;13.398;2022-12-18T10:54:36;61.10;;;25.83;;
44720;SDS011;30450;52.534;13.398;2022-12-18T10:57:45;61.60;;;25.63;;
44720;SDS011;30450;52.534;13.398;2022-12-18T10:59:53;64.57;;;24.13;;
44720;SDS011;30450;52.534;13.398;2022-12-18T11:02:35;57.72;;;23.70;;
44720;SDS011;30450;52.534;13.398;2022-12-18T11:05:02;63.00;;;25.23;;
44720;SDS011;30450;52.534;13.398;2022-12-18T11:07:48;57.10;;;24.58;;
44720;SDS011;30450;52.534;13.398;2022-12-18T11:10:19;55.78;;;24.67;;
44720;SDS011;30450;52.534;13.398;2022-12-18T11:12:46;58.75;;;23.75;;
44720;SDS011;30450;52.534;13.398;2022-12-18T11:15:30;62.55;;;26.60;;
44720;SDS011;30450;52.534;13.398;2022-12-18T11:17:56;62.40;;;25.67;;
44720;SDS011;30450;52.534;13.398;2022-12-18T11:20:32;68.60;;;28.95;;
44720;SDS011;30450;52.534;13.398;2022-12-18T11:23:10;66.80;;;26.75;;
44720;SDS011;30450;52.534;13.398;2022-12-18T11:25:37;67.40;;;26.67;;
44720;SDS011;30450;52.534;13.398;2022-12-18T11:30:48;64.20;;;27.17;;
44720;SDS011;30450;52.534;13.398;2022-12-18T11:33:15;62.70;;;26.35;;
44720;SDS011;30450;52.534;13.398;2022-12-18T11:35:51;58.85;;;26.50;;
44720;SDS011;30450;52.534;13.398;2022-12-18T11:38:34;59.88;;;25.77;;
44720;SDS011;30450;52.534;13.398;2022-12-18T11:43:38;44.38;;;21.55;;
44720;SDS011;30450;52.534;13.398;2022-12-18T11:46:05;52.45;;;23.77;;
44720;SDS011;30450;52.534;13.398;2022-12-18T11:48:34;47.15;;;22.38;;
44720;SDS011;30450;52.534;13.398;2022-12-18T11:51:02;47.13;;;21.92;;
44720;SDS011;30450;52.534;13.398;2022-12-18T11:53:30;49.42;;;23.25;;
44720;SDS011;30450;52.534;13.398;2022-12-18T11:58:39;46.72;;;20.95;;
44720;SDS011;30450;52.534;13.398;2022-12-18T12:21:41;40.47;;;19.17;;
44720;SDS011;30450;52.534;13.398;2022-12-18T12:26:45;47.85;;;22.13;;
44720;SDS011;30450;52.534;13.398;2022-12-18T12:34:26;41.92;;;21.65;;
44720;SDS011;30450;52.534;13.398;2022-12-18T12:39:34;43.08;;;20.00;;
44720;SDS011;30450;52.534;13.398;2022-12-18T12:42:02;50.83;;;21.30;;
44720;SDS011;30450;52.534;13.398;2022-12-18T12:44:50;46.58;;;21.17;;
44720;SDS011;30450;52.534;13.398;2022-12-18T12:47:31;48.50;;;23.42;;
44720;SDS011;30450;52.534;13.398;2022-12-18T12:49:58;47.28;;;23.33;;
44720;SDS011;30450;52.534;13.398;2022-12-18T12:52:58;47.22;;;21.58;;
44720;SDS011;30450;52.534;13.398;2022-12-18T12:55:18;48.38;;;22.33;;
44720;SDS011;30450;52.534;13.398;2022-12-18T12:57:46;50.35;;;24.85;;
44720;SDS011;30450;52.534;13.398;2022-12-18T13:00:15;51.05;;;24.33;;
44720;SDS011;30450;52.534;13.398;2022-12-18T13:07:51;45.33;;;24.70;;
44720;SDS011;30450;52.534;13.398;2022-12-18T13:13:10;46.47;;;22.25;;
44720;SDS011;30450;52.534;13.398;2022-12-18T13:15:38;44.63;;;21.67;;
44720;SDS011;30450;52.534;13.398;2022-12-18T13:20:38;45.42;;;19.92;;
44720;SDS011;30450;52.534;13.398;2022-12-18T13:25:49;39.90;;;19.83;;
44720;SDS011;30450;52.534;13.398;2022-12-18T13:28:16;43.03;;;19.80;;
44720;SDS011;30450;52.534;13.398;2022-12-18T13:30:44;38.50;;;19.55;;
44720;SDS011;30450;52.534;13.398;2022-12-18T13:43:26;37.33;;;20.20;;
44720;SDS011;30450;52.534;13.398;2022-12-18T13:46:06;40.05;;;20.35;;
44720;SDS011;30450;52.534;13.398;2022-12-18T13:48:47;51.28;;;23.45;;
44720;SDS011;30450;52.534;13.398;2022-12-18T13:51:16;50.47;;;22.58;;
44720;SDS011;30450;52.534;13.398;2022-12-18T13:53:44;44.35;;;22.00;;
44720;SDS011;30450;52.534;13.398;2022-12-18T13:56:18;39.53;;;22.33;;
44720;SDS011;30450;52.534;13.398;2022-12-18T13:59:02;41.90;;;20.05;;
44720;SDS011;30450;52.534;13.398;2022-12-18T14:01:28;42.30;;;20.35;;
44720;SDS011;30450;52.534;13.398;2022-12-18T14:06:39;37.50;;;20.67;;
44720;SDS011;30450;52.534;13.398;2022-12-18T14:09:05;40.58;;;21.27;;
44720;SDS011;30450;52.534;13.398;2022-12-18T14:11:31;38.20;;;21.13;;
44720;SDS011;30450;52.534;13.398;2022-12-18T14:13:57;41.58;;;24.10;;
44720;SDS011;30450;52.534;13.398;2022-12-18T14:16:23;43.92;;;23.65;;
44720;SDS011;30450;52.534;13.398;2022-12-18T14:21:22;53.80;;;27.63;;
44720;SDS011;30450;52.534;13.398;2022-12-18T14:23:49;43.58;;;24.77;;
44720;SDS011;30450;52.534;13.398;2022-12-18T14:26:29;48.30;;;24.60;;
44720;SDS011;30450;52.534;13.398;2022-12-18T14:28:55;45.30;;;25.70;;
44720;SDS011;30450;52.534;13.398;2022-12-18T14:31:22;48.30;;;25.20;;
44720;SDS011;30450;52.534;13.398;2022-12-18T14:33:49;41.05;;;24.40;;
44720;SDS011;30450;52.534;13.398;2022-12-18T14:36:17;45.40;;;26.08;;
44720;SDS011;30450;52.534;13.398;2022-12-18T14:38:42;50.92;;;26.48;;
44720;SDS011;30450;52.534;13.398;2022-12-18T14:41:12;45.50;;;27.20;;
44720;SDS011;30450;52.534;13.398;2022-12-18T14:43:40;51.70;;;26.75;;
44720;SDS011;30450;52.534;13.398;2022-12-18T14:46:25;41.58;;;23.38;;
44720;SDS011;30450;52.534;13.398;2022-12-18T14:48:52;41.70;;;21.52;;
44720;SDS011;30450;52.534;13.398;2022-12-18T14:51:20;43.13;;;23.10;;
44720;SDS011;30450;52.534;13.398;2022-12-18T14:53:47;48.65;;;22.55;;
44720;SDS011;30450;52.534;13.398;2022-12-18T14:56:21;48.67;;;24.52;;
44720;SDS011;30450;52.534;13.398;2022-12-18T14:58:48;39.60;;;21.13;;
44720;SDS011;30450;52.534;13.398;2022-12-18T15:01:21;49.37;;;21.73;;
44720;SDS011;30450;52.534;13.398;2022-12-18T15:03:48;42.33;;;21.77;;
44720;SDS011;30450;52.534;13.398;2022-12-18T15:06:18;36.85;;;20.42;;
44720;SDS011;30450;52.534;13.398;2022-12-18T15:08:48;41.40;;;21.85;;
44720;SDS011;30450;52.534;13.398;2022-12-18T15:13:51;38.40;;;20.55;;
44720;SDS011;30450;52.534;13.398;2022-12-18T15:16:17;45.05;;;21.88;;
44720;SDS011;30450;52.534;13.398;2022-12-18T15:18:46;36.20;;;20.63;;
44720;SDS011;30450;52.534;13.398;2022-12-18T15:21:16;43.17;;;22.92;;
44720;SDS011;30450;52.534;13.398;2022-12-18T15:23:52;37.58;;;20.30;;
44720;SDS011;30450;52.534;13.398;2022-12-18T15:26:19;40.38;;;19.88;;
44720;SDS011;30450;52.534;13.398;2022-12-18T15:28:55;31.85;;;19.58;;
44720;SDS011;30450;52.534;13.398;2022-12-18T15:31:23;36.17;;;21.30;;
44720;SDS011;30450;52.534;13.398;2022-12-18T15:36:19;37.70;;;21.88;;
44720;SDS011;30450;52.534;13.398;2022-12-18T15:38:48;38.17;;;21.92;;
44720;SDS011;30450;52.534;13.398;2022-12-18T15:41:14;44.45;;;23.95;;
44720;SDS011;30450;52.534;13.398;2022-12-18T15:43:41;40.42;;;21.17;;
44720;SDS011;30450;52.534;13.398;2022-12-18T15:46:14;39.10;;;19.73;;
44720;SDS011;30450;52.534;13.398;2022-12-18T15:48:42;39.42;;;22.85;;
44720;SDS011;30450;52.534;13.398;2022-12-18T15:51:13;48.55;;;22.60;;
44720;SDS011;30450;52.534;13.398;2022-12-18T15:53:41;37.85;;;20.77;;
44720;SDS011;30450;52.534;13.398;2022-12-18T15:56:10;45.58;;;23.50;;
44720;SDS011;30450;52.534;13.398;2022-12-18T15:58:56;40.58;;;23.10;;
44720;SDS011;30450;52.534;13.398;2022-12-18T16:01:26;41.65;;;22.77;;